Time;durP1;ratioP1;P1;durP2;ratioP2;P2;SDS_P1;SDS_P2;PMS_P1;PMS_P2;Temp;Humidity;BMP_temperature;BMP_pressure;BME280_temperature;BME280_humidity;BME280_pressure;Samples;Min_cycle;Max_cycle;Signal;HPM_P1;HPM_P2
2023/11/04 14:25:26;;;;;;;;;4.40;4.40;;;;;;;;5106446;27;13597;-36
2023/11/04 14:27:52;;;;;;;;;7.60;5.00;;;;;;;;5111838;28;8806;-35
2023/11/04 14:30:17;;;;;;;;;8.25;7.25;;;;;;;;5104703;27;9082;-35
2023/11/04 14:32:43;;;;;;;;;10.25;5.00;;;;;;;;5069027;28;58570;-37
2023/11/04 14:36:40;;;;;;;;;7.20;5.20;;;;;;;;5040003;27;54128;-45
2023/11/04 14:39:24;;;;;;;;;6.40;6.00;;;;;;;;5025106;28;54323;-37
2023/11/04 14:42:09;;;;;;;;;10.80;6.60;;;;;;;;5026475;28;8803;-38
2023/11/04 14:44:53;;;;;;;;;6.40;4.80;;;;;;;;5025650;28;8790;-33
2023/11/04 14:47:37;;;;;;;;;5.60;5.20;;;;;;;;5031600;28;8810;-45
2023/11/04 14:50:21;;;;;;;;;7.00;3.60;;;;;;;;5035535;28;8819;-44
2023/11/04 14:53:05;;;;;;;;;7.40;6.00;;;;;;;;5028149;28;8810;-35
2023/11/04 14:57:01;;;;;;;;;6.80;5.80;;;;;;;;5052213;27;52772;-40
2023/11/04 14:59:45;;;;;;;;;8.20;5.00;;;;;;;;5069758;28;8779;-38
2023/11/04 15:03:46;;;;;;;;;7.83;6.00;;;;;;;;4912071;27;3459027;-34
2023/11/04 15:06:12;;;;;;;;;6.00;6.00;;;;;;;;4603434;28;2745151;-35
2023/11/04 15:10:28;;;;;;;;;7.67;6.00;;;;;;;;4620154;27;3460577;-31
2023/11/04 15:13:15;;;;;;;;;10.00;6.67;;;;;;;;4623416;28;2768979;-41
2023/11/04 15:16:02;;;;;;;;;9.00;8.67;;;;;;;;4617377;28;2751022;-43
2023/11/04 15:18:49;;;;;;;;;10.67;5.33;;;;;;;;4632370;28;2761775;-43
2023/11/04 15:21:00;;;;;;;;;7.00;6.00;;;;;;;;569501;27;2757089;-32
2023/11/04 15:21:51;;;;;;;;;9.00;6.00;;;;;;;;625788;28;2746349;-42
2023/11/04 15:22:43;;;;;;;;;8.67;7.00;;;;;;;;624922;28;2736864;-40
2023/11/04 15:23:35;;;;;;;;;6.67;6.00;;;;;;;;609272;28;2736826;-48
2023/11/04 15:24:28;;;;;;;;;8.60;6.20;;;;;;;;637687;28;2738785;-34
2023/11/04 15:25:20;;;;;;;;;9.33;6.00;;;;;;;;599088;28;2749208;-41
2023/11/04 15:26:11;;;;;;;;;8.00;6.33;;;;;;;;614013;28;2739526;-39
2023/11/04 15:27:03;;;;;;;;;12.00;8.33;;;;;;;;611397;28;2772247;-33
2023/11/04 15:27:55;;;;;;;;;9.00;6.67;;;;;;;;618527;28;2751444;-42
2023/11/04 15:28:47;;;;;;;;;6.67;6.00;;;;;;;;619894;28;2743088;-51
2023/11/04 15:29:39;;;;;;;;;11.33;6.33;;;;;;;;610727;28;2435765;-54
2023/11/04 15:30:30;;;;;;;;;12.00;5.67;;;;;;;;621211;28;2775219;-51
2023/11/04 15:31:22;;;;;;;;;13.00;8.00;;;;;;;;620877;28;2760915;-37
2023/11/04 15:32:14;;;;;;;;;7.33;7.00;;;;;;;;620768;28;2741880;-38
2023/11/04 15:33:07;;;;;;;;;7.67;7.00;;;;;;;;621565;28;2740858;-37
2023/11/04 15:33:59;;;;;;;;;8.33;7.00;;;;;;;;630010;28;2751337;-40
2023/11/04 15:34:51;;;;;;;;;6.00;4.67;;;;;;;;629543;28;2732526;-38
2023/11/04 15:35:43;;;;;;;;;11.33;7.67;;;;;;;;630442;28;2762791;-47
2023/11/04 15:36:35;;;;;;;;;9.33;8.00;;;;;;;;623084;28;2762756;-36
2023/11/04 15:37:27;;;;;;;;;11.00;7.67;;;;;;;;622595;28;2750233;-39
2023/11/04 15:38:19;;;;;;;;;8.33;6.00;;;;;;;;631466;28;2744026;-49
2023/11/04 15:39:11;;;;;;;;;11.67;8.67;;;;;;;;622977;28;2765862;-46
2023/11/04 15:40:03;;;;;;;;;7.00;7.00;;;;;;;;623400;28;2738747;-40
2023/11/04 15:40:54;;;;;;;;;11.00;9.00;;;;;;;;622318;28;2773438;-42
2023/11/04 15:41:46;;;;;;;;;10.67;7.33;;;;;;;;622822;28;2748200;-47
2023/11/04 15:42:38;;;;;;;;;10.00;8.33;;;;;;;;621194;28;2770060;-42
2023/11/04 15:43:30;;;;;;;;;9.00;6.33;;;;;;;;622507;28;2743959;-43
2023/11/04 15:44:22;;;;;;;;;5.00;4.00;;;;;;;;623692;28;2736962;-54
2023/11/04 15:45:13;;;;;;;;;7.33;6.67;;;;;;;;622309;28;2727305;-45
2023/11/04 15:46:05;;;;;;;;;9.67;8.67;;;;;;;;623257;28;2760618;-52
2023/11/04 15:46:58;;;;;;;;;7.60;7.20;;;;;;;;639133;28;2736740;-41
2023/11/04 15:47:49;;;;;;;;;7.00;7.00;;;;;;;;604093;28;2740874;-44
2023/11/04 15:48:41;;;;;;;;;15.00;9.67;;;;;;;;628314;28;2781511;-44
2023/11/04 15:49:33;;;;;;;;;14.33;8.33;;;;;;;;627676;28;2782515;-40
2023/11/04 15:50:24;;;;;;;;;11.00;9.00;;;;;;;;629121;28;2756498;-44
2023/11/04 15:51:16;;;;;;;;;8.33;8.00;;;;;;;;621311;28;2738802;-43
2023/11/04 15:52:08;;;;;;;;;9.67;8.33;;;;;;;;628210;28;2757561;-43
2023/11/04 15:52:59;;;;;;;;;10.00;10.00;;;;;;;;628571;28;2787788;-51
2023/11/04 15:53:51;;;;;;;;;11.67;10.00;;;;;;;;628284;28;2782566;-44
2023/11/04 15:54:43;;;;;;;;;9.33;8.00;;;;;;;;630652;28;2753394;-46
2023/11/04 15:55:35;;;;;;;;;9.67;9.00;;;;;;;;618694;28;3467958;-42
2023/11/04 15:56:27;;;;;;;;;11.67;9.00;;;;;;;;632944;28;2767205;-41
2023/11/04 15:57:20;;;;;;;;;11.33;9.00;;;;;;;;617606;28;2762748;-40
2023/11/04 15:58:12;;;;;;;;;15.00;9.00;;;;;;;;618162;28;3500175;-52
2023/11/04 15:59:03;;;;;;;;;9.33;8.00;;;;;;;;618841;28;3476229;-43
2023/11/04 15:59:56;;;;;;;;;12.00;9.67;;;;;;;;619112;28;2783619;-47
2023/11/04 16:00:48;;;;;;;;;11.00;8.00;;;;;;;;632461;28;2765842;-40
2023/11/04 16:01:40;;;;;;;;;13.67;9.67;;;;;;;;618395;28;3501299;-43
2023/11/04 16:02:33;;;;;;;;;11.00;11.00;;;;;;;;618825;28;3510858;-46
2023/11/04 16:03:55;;;;;;;;;14.14;9.57;;;;;;;;591006;27;3515910;-40
2023/11/04 16:04:45;;;;;;;;;8.00;7.00;;;;;;;;628222;28;2852575;-39
2023/11/04 16:05:36;;;;;;;;;10.00;7.00;;;;;;;;633037;28;2748443;-45
2023/11/04 16:06:26;;;;;;;;;10.00;8.00;;;;;;;;632887;28;2771070;-48
2023/11/04 16:07:16;;;;;;;;;14.00;10.00;;;;;;;;633752;28;2793998;-52
2023/11/04 16:08:05;;;;;;;;;11.00;8.00;;;;;;;;621832;28;2769062;-47
2023/11/04 16:08:57;;;;;;;;;12.67;10.00;;;;;;;;620714;28;2786804;-42
2023/11/04 16:09:47;;;;;;;;;13.00;9.33;;;;;;;;630642;28;2774159;-39
2023/11/04 16:10:36;;;;;;;;;10.00;7.00;;;;;;;;626279;28;2754404;-48
2023/11/04 16:11:26;;;;;;;;;10.33;9.67;;;;;;;;622591;28;3500207;-42
2023/11/04 16:12:15;;;;;;;;;11.33;8.00;;;;;;;;621424;28;3480433;-46
2023/11/04 16:13:06;;;;;;;;;7.00;6.33;;;;;;;;628680;28;2730395;-45
2023/11/04 16:13:56;;;;;;;;;9.00;8.00;;;;;;;;636225;28;2753381;-45
2023/11/04 16:14:45;;;;;;;;;14.33;8.67;;;;;;;;628447;28;2765829;-45
2023/11/04 16:15:35;;;;;;;;;8.33;6.67;;;;;;;;636659;28;2727292;-46
2023/11/04 16:16:24;;;;;;;;;10.67;8.67;;;;;;;;626836;28;2766867;-46
2023/11/04 16:17:14;;;;;;;;;10.00;7.00;;;;;;;;620449;28;2747258;-47
2023/11/04 16:18:05;;;;;;;;;8.33;8.33;;;;;;;;628393;28;2754361;-45
2023/11/04 16:18:54;;;;;;;;;9.00;7.33;;;;;;;;630066;28;2739839;-49
2023/11/04 16:19:44;;;;;;;;;18.67;9.00;;;;;;;;634218;28;2799160;-47
2023/11/04 16:20:33;;;;;;;;;8.00;7.67;;;;;;;;629626;28;2731490;-41
2023/11/04 16:21:23;;;;;;;;;6.67;6.33;;;;;;;;638391;28;2743947;-45
2023/11/04 16:22:13;;;;;;;;;8.00;6.00;;;;;;;;634935;28;2741887;-39
2023/11/04 16:23:04;;;;;;;;;10.67;8.33;;;;;;;;636833;28;2765900;-50
2023/11/04 16:23:53;;;;;;;;;9.00;2.67;;;;;;;;628769;28;2758535;-56
2023/11/04 16:24:43;;;;;;;;;9.67;6.67;;;;;;;;626205;28;2743959;-53
2023/11/04 16:25:33;;;;;;;;;10.33;7.67;;;;;;;;634140;28;2765837;-53
2023/11/04 16:26:22;;;;;;;;;10.67;8.33;;;;;;;;626927;28;2754677;-47
2023/11/04 16:27:12;;;;;;;;;12.67;8.67;;;;;;;;620500;28;2767281;-48
2023/11/04 16:28:02;;;;;;;;;8.33;7.33;;;;;;;;629101;28;2733595;-56
2023/11/04 16:28:51;;;;;;;;;8.33;6.33;;;;;;;;628678;28;2738751;-56
2023/11/04 16:29:41;;;;;;;;;9.67;7.33;;;;;;;;627182;28;2755762;-52
2023/11/04 16:30:30;;;;;;;;;10.33;6.33;;;;;;;;638080;28;2754423;-44
2023/11/04 16:31:23;;;;;;;;;7.33;6.67;;;;;;;;628775;28;2729752;-43
2023/11/04 16:32:13;;;;;;;;;10.33;8.00;;;;;;;;637075;28;2757504;-51
2023/11/04 16:33:03;;;;;;;;;16.00;8.33;;;;;;;;622505;28;3507463;-48
2023/11/04 16:33:52;;;;;;;;;9.33;6.67;;;;;;;;636773;28;2738772;-57
2023/11/04 16:34:42;;;;;;;;;13.33;9.00;;;;;;;;628952;28;2769284;-47
2023/11/04 16:35:31;;;;;;;;;6.33;5.67;;;;;;;;630337;28;2737706;-44
2023/11/04 16:36:21;;;;;;;;;8.33;7.00;;;;;;;;635471;28;2733821;-39
2023/11/04 16:37:11;;;;;;;;;8.00;7.67;;;;;;;;627099;28;2737717;-40
2023/11/04 16:38:05;;;;;;;;;13.00;8.00;;;;;;;;633328;28;2773125;-41
2023/11/04 16:38:54;;;;;;;;;13.33;7.00;;;;;;;;626959;28;2766894;-45
2023/11/04 16:39:44;;;;;;;;;6.33;6.00;;;;;;;;620127;28;2738842;-48
2023/11/04 16:40:34;;;;;;;;;6.33;6.33;;;;;;;;636390;28;2734608;-57
2023/11/04 16:42:02;;;;;;;;;9.67;5.33;;;;;;;;596429;27;3465806;-45
2023/11/04 16:43:00;;;;;;;;;12.33;5.00;;;;;;;;606572;27;1832009;-42
2023/11/04 16:43:49;;;;;;;;;8.00;6.00;;;;;;;;643661;28;2729392;-36
2023/11/04 16:44:39;;;;;;;;;7.67;7.67;;;;;;;;636297;27;2733624;-40
2023/11/04 16:45:28;;;;;;;;;9.67;6.00;;;;;;;;637184;28;2756474;-35
2023/11/04 16:46:18;;;;;;;;;6.00;5.67;;;;;;;;643771;27;2740916;-38
2023/11/04 16:47:08;;;;;;;;;4.00;4.00;;;;;;;;635955;28;2738743;-34
2023/11/04 16:47:58;;;;;;;;;5.00;4.00;;;;;;;;636105;28;2738795;-42
2023/11/04 16:48:48;;;;;;;;;8.67;7.00;;;;;;;;643438;28;2736703;-46
2023/11/04 16:49:37;;;;;;;;;6.00;5.00;;;;;;;;644488;28;2727391;-48
2023/11/04 16:50:27;;;;;;;;;8.33;6.33;;;;;;;;638178;28;2740839;-55
2023/11/04 16:51:16;;;;;;;;;8.67;6.00;;;;;;;;637364;28;2725237;-45
2023/11/04 16:52:06;;;;;;;;;8.67;7.67;;;;;;;;629932;28;2742913;-41
2023/11/04 16:52:55;;;;;;;;;10.00;7.00;;;;;;;;629769;28;3477297;-40
2023/11/04 16:53:45;;;;;;;;;7.33;6.33;;;;;;;;637204;28;2737745;-42
2023/11/04 16:54:36;;;;;;;;;8.67;6.00;;;;;;;;635517;28;2746052;-50
2023/11/04 16:55:48;;;;;;;;;8.00;4.00;;;;;;;;596587;27;3453638;-42
2023/11/04 16:56:38;;;;;;;;;6.67;6.00;;;;;;;;628445;28;2746066;-37
2023/11/04 16:57:27;;;;;;;;;9.67;6.00;;;;;;;;629150;28;2744016;-36
2023/11/04 16:58:36;;;;;;;;;11.00;6.00;;;;;;;;579054;27;2785754;-35
2023/11/04 16:59:25;;;;;;;;;7.67;5.00;;;;;;;;607826;28;2739840;-38
2023/11/04 17:00:15;;;;;;;;;5.67;5.00;;;;;;;;623634;28;2739861;-36
2023/11/04 17:01:06;;;;;;;;;8.00;6.00;;;;;;;;626517;28;2733558;-41
2023/11/04 17:02:08;;;;;;;;;8.50;6.00;;;;;;;;563796;27;2747103;-43
2023/11/04 17:03:01;;;;;;;;;7.00;5.86;;;;;;;;651110;28;3459632;-37
2023/11/04 17:03:59;;;;;;;;;8.67;6.00;;;;;;;;580346;27;1830572;-35
2023/11/04 17:04:50;;;;;;;;;9.33;7.00;;;;;;;;636092;28;2735723;-45
2023/11/04 17:05:39;;;;;;;;;6.67;5.00;;;;;;;;623012;28;3452480;-34
2023/11/04 17:07:08;;;;;;;;;9.00;6.67;;;;;;;;579132;28;2770226;-36
2023/11/04 17:07:58;;;;;;;;;7.33;4.00;;;;;;;;598061;28;2751280;-34
2023/11/04 17:08:48;;;;;;;;;8.33;6.33;;;;;;;;618075;28;2747889;-34
2023/11/04 17:09:37;;;;;;;;;7.00;6.00;;;;;;;;627750;28;2742687;-38
2023/11/04 17:10:27;;;;;;;;;12.33;5.67;;;;;;;;633494;28;2758558;-33
2023/11/04 17:11:25;;;;;;;;;6.00;5.67;;;;;;;;628873;28;2729411;-32
2023/11/04 17:12:15;;;;;;;;;6.00;5.00;;;;;;;;627129;28;2742185;-33
2023/11/04 17:13:05;;;;;;;;;9.00;7.00;;;;;;;;635332;28;2740878;-32
2023/11/04 17:13:54;;;;;;;;;8.67;6.00;;;;;;;;634961;28;2745040;-32
2023/11/04 17:14:44;;;;;;;;;8.00;6.00;;;;;;;;625855;28;2729384;-33
2023/11/04 17:15:34;;;;;;;;;7.67;4.67;;;;;;;;626523;28;2738756;-35
2023/11/04 17:16:24;;;;;;;;;8.33;5.00;;;;;;;;625123;28;2738754;-34
2023/11/04 17:17:14;;;;;;;;;8.00;7.67;;;;;;;;634990;28;2740118;-33
2023/11/04 17:18:24;;;;;;;;;6.00;5.00;;;;;;;;579417;27;2732545;-42
2023/11/04 17:19:13;;;;;;;;;7.00;6.00;;;;;;;;628828;28;2746049;-37
2023/11/04 17:20:28;;;;;;;;;6.67;5.00;;;;;;;;596563;27;3446066;-40
2023/11/04 17:21:18;;;;;;;;;10.67;6.33;;;;;;;;635564;28;2754375;-38
2023/11/04 17:22:24;;;;;;;;;5.67;4.33;;;;;;;;585445;27;1816999;-39
2023/11/04 17:23:14;;;;;;;;;9.00;6.67;;;;;;;;636082;28;2756619;-38
2023/11/04 17:24:04;;;;;;;;;7.33;5.33;;;;;;;;620232;28;2746151;-34
2023/11/04 17:24:54;;;;;;;;;7.67;5.00;;;;;;;;619365;28;3453411;-40
2023/11/04 17:25:43;;;;;;;;;9.67;7.00;;;;;;;;611108;28;2767611;-39
2023/11/04 17:26:32;;;;;;;;;9.60;7.00;;;;;;;;1047940;28;63071;-37
2023/11/04 17:27:21;;;;;;;;;9.40;6.80;;;;;;;;1051717;28;8772;-36
2023/11/04 17:28:10;;;;;;;;;10.00;7.20;;;;;;;;1050323;28;8764;-36
2023/11/04 17:28:59;;;;;;;;;9.20;6.20;;;;;;;;1050486;28;8816;-42
2023/11/04 17:29:48;;;;;;;;;8.20;7.20;;;;;;;;1049516;28;8755;-42
2023/11/04 17:30:37;;;;;;;;;12.80;7.60;;;;;;;;1051117;28;8776;-42
2023/11/04 17:31:26;;;;;;;;;7.20;6.00;;;;;;;;1051599;28;8772;-42
2023/11/04 17:32:15;;;;;;;;;7.40;6.40;;;;;;;;1051487;28;8776;-42
2023/11/04 17:33:04;;;;;;;;;10.40;8.20;;;;;;;;1051444;28;8788;-43
2023/11/04 17:33:53;;;;;;;;;8.00;6.60;;;;;;;;1047032;28;8765;-43
2023/11/04 17:34:42;;;;;;;;;7.20;7.20;;;;;;;;1047086;28;8762;-42
2023/11/04 17:35:31;;;;;;;;;11.00;7.40;;;;;;;;1050728;28;8788;-40
2023/11/04 17:36:20;;;;;;;;;9.20;7.60;;;;;;;;1051214;28;8788;-42
2023/11/04 17:37:09;;;;;;;;;10.00;6.40;;;;;;;;1049832;28;8794;-42
2023/11/04 17:37:58;;;;;;;;;10.80;6.20;;;;;;;;1046015;28;9545;-40
2023/11/04 17:38:47;;;;;;;;;9.00;7.60;;;;;;;;1038368;28;59912;-46
2023/11/04 17:39:36;;;;;;;;;10.60;7.40;;;;;;;;1044865;28;8928;-51
2023/11/04 17:40:25;;;;;;;;;8.00;6.40;;;;;;;;1045072;28;9534;-44
2023/11/04 17:41:39;;;;;;;;;13.60;9.00;;;;;;;;1046400;27;13407;-40
2023/11/04 17:42:31;;;;;;;;;8.67;8.33;;;;;;;;814092;28;2755491;-45
2023/11/04 17:43:20;;;;;;;;;9.33;6.67;;;;;;;;633087;28;2753390;-43
2023/11/04 17:44:10;;;;;;;;;8.33;7.67;;;;;;;;621541;28;2752732;-40
2023/11/04 17:45:00;;;;;;;;;13.67;9.33;;;;;;;;620635;28;3515359;-39
2023/11/04 17:45:52;;;;;;;;;10.29;8.29;;;;;;;;640381;28;3488041;-38
2023/11/04 17:46:44;;;;;;;;;8.71;7.00;;;;;;;;642554;28;2759851;-47
2023/11/04 17:47:37;;;;;;;;;13.71;9.43;;;;;;;;639035;28;3508617;-42
2023/11/04 17:48:30;;;;;;;;;9.33;8.33;;;;;;;;627002;28;2476263;-36
2023/11/04 17:49:20;;;;;;;;;15.00;7.67;;;;;;;;616132;28;2774306;-41
2023/11/04 17:50:09;;;;;;;;;8.67;8.00;;;;;;;;632133;28;2751462;-40
2023/11/04 17:51:23;;;;;;;;;13.86;9.71;;;;;;;;550840;28;3532117;-36
2023/11/04 17:52:13;;;;;;;;;10.00;8.00;;;;;;;;584271;28;3476599;-36
2023/11/04 17:53:02;;;;;;;;;13.67;9.00;;;;;;;;601283;28;3502644;-37
2023/11/04 17:53:53;;;;;;;;;15.00;10.00;;;;;;;;623545;28;2801659;-36
2023/11/04 17:54:43;;;;;;;;;13.33;10.33;;;;;;;;604680;28;3523415;-37
2023/11/04 17:55:33;;;;;;;;;11.00;9.67;;;;;;;;622783;28;2474189;-36
2023/11/04 17:56:22;;;;;;;;;11.33;10.33;;;;;;;;618692;28;2473271;-34
2023/11/04 17:57:12;;;;;;;;;14.00;11.00;;;;;;;;601885;28;3522368;-34
2023/11/04 17:58:02;;;;;;;;;16.50;12.00;;;;;;;;610407;28;2815916;-35
2023/11/04 17:58:53;;;;;;;;;10.33;7.00;;;;;;;;594792;28;2748230;-36
2023/11/04 17:59:55;;;;;;;;;11.29;9.71;;;;;;;;575720;28;3502857;-36
2023/11/04 18:00:27;;;;;;;;;17.33;14.00;;;;;;;;595798;28;3535645;-37
2023/11/04 18:00:58;;;;;;;;;15.00;11.00;;;;;;;;597509;28;2785668;-37
2023/11/04 18:01:29;;;;;;;;;12.00;10.00;;;;;;;;623331;28;3503357;-36
2023/11/04 18:02:01;;;;;;;;;13.00;10.00;;;;;;;;640265;28;2487705;-34
2023/11/04 18:02:32;;;;;;;;;15.00;11.33;;;;;;;;611001;28;3501257;-37
2023/11/04 18:03:04;;;;;;;;;13.00;10.00;;;;;;;;630954;28;2479486;-36
2023/11/04 18:03:35;;;;;;;;;11.00;11.00;;;;;;;;620619;28;3505439;-34
2023/11/04 18:04:06;;;;;;;;;9.20;7.00;;;;;;;;623364;28;3464769;-39
2023/11/04 18:04:38;;;;;;;;;11.00;8.00;;;;;;;;646541;28;3485948;-37
2023/11/04 18:05:09;;;;;;;;;15.00;10.00;;;;;;;;644126;28;2485664;-36
2023/11/04 18:05:40;;;;;;;;;10.00;8.00;;;;;;;;618273;28;2489846;-37
2023/11/04 18:06:12;;;;;;;;;16.50;11.00;;;;;;;;618366;28;2489838;-36
2023/11/04 18:06:43;;;;;;;;;10.67;8.00;;;;;;;;595621;28;3484599;-38
